sensor_id;sensor_type;location;lat;lon;timestamp;P1;durP1;ratioP1;P2;durP2;ratioP2
2049;SDS011;8478;49.208;8.806;2023-02-28T00:02:20;4.50;;;4.20;;
2049;SDS011;8478;49.208;8.806;2023-02-28T00:04:45;3.63;;;3.43;;
2049;SDS011;8478;49.208;8.806;2023-02-28T00:07:17;3.70;;;3.40;;
2049;SDS011;8478;49.208;8.806;2023-02-28T00:09:44;4.47;;;4.17;;
2049;SDS011;8478;49.208;8.806;2023-02-28T00:12:09;4.67;;;4.30;;
2049;SDS011;8478;49.208;8.806;2023-02-28T00:14:38;4.43;;;4.13;;
2049;SDS011;8478;49.208;8.806;2023-02-28T00:17:04;4.70;;;4.40;;
2049;SDS011;8478;49.208;8.806;2023-02-28T00:19:29;4.27;;;3.97;;
2049;SDS011;8478;49.208;8.806;2023-02-28T00:21:55;4.67;;;4.27;;
2049;SDS011;8478;49.208;8.806;2023-02-28T00:24:20;4.40;;;4.10;;
2049;SDS011;8478;49.208;8.806;2023-02-28T00:26:46;4.40;;;4.10;;
2049;SDS011;8478;49.208;8.806;2023-02-28T00:29:12;4.70;;;4.40;;
2049;SDS011;8478;49.208;8.806;2023-02-28T00:31:37;4.40;;;4.00;;
2049;SDS011;8478;49.208;8.806;2023-02-28T00:34:03;4.33;;;4.03;;
2049;SDS011;8478;49.208;8.806;2023-02-28T00:36:28;4.23;;;3.93;;
2049;SDS011;8478;49.208;8.806;2023-02-28T00:38:54;4.97;;;4.50;;
2049;SDS011;8478;49.208;8.806;2023-02-28T00:41:20;4.13;;;3.83;;
2049;SDS011;8478;49.208;8.806;2023-02-28T00:43:46;5.37;;;4.87;;
2049;SDS011;8478;49.208;8.806;2023-02-28T00:46:11;5.07;;;4.47;;
2049;SDS011;8478;49.208;8.806;2023-02-28T00:48:37;4.40;;;4.10;;
2049;SDS011;8478;49.208;8.806;2023-02-28T00:51:03;4.80;;;4.40;;
2049;SDS011;8478;49.208;8.806;2023-02-28T00:53:29;4.90;;;4.60;;
2049;SDS011;8478;49.208;8.806;2023-02-28T00:55:54;5.10;;;4.70;;
2049;SDS011;8478;49.208;8.806;2023-02-28T00:58:20;5.27;;;4.87;;
2049;SDS011;8478;49.208;8.806;2023-02-28T01:00:46;5.00;;;4.60;;
2049;SDS011;8478;49.208;8.806;2023-02-28T01:03:14;5.20;;;4.80;;
2049;SDS011;8478;49.208;8.806;2023-02-28T01:05:41;5.13;;;4.70;;
2049;SDS011;8478;49.208;8.806;2023-02-28T01:08:06;5.40;;;5.00;;
2049;SDS011;8478;49.208;8.806;2023-02-28T01:10:32;4.53;;;4.23;;
2049;SDS011;8478;49.208;8.806;2023-02-28T01:12:58;4.60;;;4.30;;
2049;SDS011;8478;49.208;8.806;2023-02-28T01:15:24;4.20;;;3.90;;
2049;SDS011;8478;49.208;8.806;2023-02-28T01:17:50;5.20;;;4.90;;
2049;SDS011;8478;49.208;8.806;2023-02-28T01:20:15;4.93;;;4.63;;
2049;SDS011;8478;49.208;8.806;2023-02-28T01:22:41;5.13;;;4.77;;
2049;SDS011;8478;49.208;8.806;2023-02-28T01:25:07;5.20;;;4.90;;
2049;SDS011;8478;49.208;8.806;2023-02-28T01:27:33;4.87;;;4.57;;
2049;SDS011;8478;49.208;8.806;2023-02-28T01:29:58;5.60;;;5.20;;
2049;SDS011;8478;49.208;8.806;2023-02-28T01:32:24;5.10;;;4.70;;
2049;SDS011;8478;49.208;8.806;2023-02-28T01:34:50;4.93;;;4.63;;
2049;SDS011;8478;49.208;8.806;2023-02-28T01:37:15;6.23;;;4.80;;
2049;SDS011;8478;49.208;8.806;2023-02-28T01:39:41;4.73;;;4.43;;
2049;SDS011;8478;49.208;8.806;2023-02-28T01:42:08;4.90;;;4.60;;
2049;SDS011;8478;49.208;8.806;2023-02-28T01:47:33;5.30;;;4.90;;
2049;SDS011;8478;49.208;8.806;2023-02-28T01:50:04;5.03;;;4.73;;
2049;SDS011;8478;49.208;8.806;2023-02-28T01:52:34;4.90;;;4.60;;
2049;SDS011;8478;49.208;8.806;2023-02-28T01:55:01;4.60;;;4.30;;
2049;SDS011;8478;49.208;8.806;2023-02-28T01:57:30;4.77;;;4.47;;
2049;SDS011;8478;49.208;8.806;2023-02-28T02:00:06;5.47;;;5.13;;
2049;SDS011;8478;49.208;8.806;2023-02-28T02:02:34;5.03;;;4.73;;
2049;SDS011;8478;49.208;8.806;2023-02-28T02:05:21;5.40;;;5.00;;
2049;SDS011;8478;49.208;8.806;2023-02-28T02:07:57;4.93;;;4.60;;
2049;SDS011;8478;49.208;8.806;2023-02-28T02:10:32;5.23;;;4.90;;
2049;SDS011;8478;49.208;8.806;2023-02-28T02:29:11;4.90;;;4.50;;
2049;SDS011;8478;49.208;8.806;2023-02-28T02:31:46;4.80;;;4.50;;
2049;SDS011;8478;49.208;8.806;2023-02-28T02:34:37;5.57;;;5.00;;
2049;SDS011;8478;49.208;8.806;2023-02-28T02:42:34;5.53;;;5.13;;
2049;SDS011;8478;49.208;8.806;2023-02-28T02:45:56;4.93;;;4.53;;
2049;SDS011;8478;49.208;8.806;2023-02-28T02:48:00;4.50;;;4.20;;
2049;SDS011;8478;49.208;8.806;2023-02-28T02:50:31;5.00;;;4.70;;
2049;SDS011;8478;49.208;8.806;2023-02-28T02:53:08;5.20;;;4.80;;
2049;SDS011;8478;49.208;8.806;2023-02-28T02:55:37;5.30;;;4.90;;
2049;SDS011;8478;49.208;8.806;2023-02-28T02:58:08;5.10;;;4.80;;
2049;SDS011;8478;49.208;8.806;2023-02-28T03:00:42;4.90;;;4.60;;
2049;SDS011;8478;49.208;8.806;2023-02-28T03:03:12;5.23;;;4.80;;
2049;SDS011;8478;49.208;8.806;2023-02-28T03:05:42;4.90;;;4.50;;
2049;SDS011;8478;49.208;8.806;2023-02-28T03:08:11;5.10;;;4.73;;
2049;SDS011;8478;49.208;8.806;2023-02-28T03:10:41;5.50;;;5.10;;
2049;SDS011;8478;49.208;8.806;2023-02-28T03:24:27;5.00;;;4.70;;
2049;SDS011;8478;49.208;8.806;2023-02-28T03:27:04;5.60;;;5.20;;
2049;SDS011;8478;49.208;8.806;2023-02-28T03:29:46;4.77;;;4.37;;
2049;SDS011;8478;49.208;8.806;2023-02-28T03:32:18;4.80;;;4.50;;
2049;SDS011;8478;49.208;8.806;2023-02-28T03:34:58;5.77;;;5.33;;
2049;SDS011;8478;49.208;8.806;2023-02-28T03:37:34;5.40;;;5.00;;
2049;SDS011;8478;49.208;8.806;2023-02-28T03:40:06;5.60;;;5.20;;
2049;SDS011;8478;49.208;8.806;2023-02-28T03:42:38;5.93;;;5.47;;
2049;SDS011;8478;49.208;8.806;2023-02-28T03:45:16;5.00;;;4.60;;
2049;SDS011;8478;49.208;8.806;2023-02-28T03:47:54;5.43;;;4.93;;
2049;SDS011;8478;49.208;8.806;2023-02-28T03:53:03;5.60;;;5.20;;
2049;SDS011;8478;49.208;8.806;2023-02-28T03:55:40;5.40;;;5.07;;
2049;SDS011;8478;49.208;8.806;2023-02-28T04:01:07;6.37;;;5.80;;
2049;SDS011;8478;49.208;8.806;2023-02-28T04:03:42;6.60;;;6.10;;
2049;SDS011;8478;49.208;8.806;2023-02-28T04:06:12;6.60;;;6.00;;
2049;SDS011;8478;49.208;8.806;2023-02-28T04:08:41;7.03;;;6.33;;
2049;SDS011;8478;49.208;8.806;2023-02-28T04:11:11;6.70;;;6.20;;
2049;SDS011;8478;49.208;8.806;2023-02-28T04:13:51;6.90;;;6.30;;
2049;SDS011;8478;49.208;8.806;2023-02-28T04:16:16;7.43;;;6.83;;
2049;SDS011;8478;49.208;8.806;2023-02-28T04:18:42;7.97;;;7.20;;
2049;SDS011;8478;49.208;8.806;2023-02-28T04:21:08;9.23;;;8.33;;
2049;SDS011;8478;49.208;8.806;2023-02-28T04:23:35;8.90;;;8.10;;
2049;SDS011;8478;49.208;8.806;2023-02-28T04:26:01;7.30;;;6.73;;
2049;SDS011;8478;49.208;8.806;2023-02-28T04:28:26;7.97;;;7.37;;
2049;SDS011;8478;49.208;8.806;2023-02-28T04:31:02;7.67;;;6.87;;
2049;SDS011;8478;49.208;8.806;2023-02-28T04:33:30;7.70;;;6.90;;
2049;SDS011;8478;49.208;8.806;2023-02-28T04:36:03;6.70;;;6.17;;
2049;SDS011;8478;49.208;8.806;2023-02-28T04:38:32;7.00;;;6.50;;
2049;SDS011;8478;49.208;8.806;2023-02-28T04:41:03;6.40;;;6.00;;
2049;SDS011;8478;49.208;8.806;2023-02-28T04:43:29;6.97;;;6.30;;
2049;SDS011;8478;49.208;8.806;2023-02-28T04:45:56;6.17;;;5.67;;
2049;SDS011;8478;49.208;8.806;2023-02-28T04:48:23;7.30;;;6.80;;
2049;SDS011;8478;49.208;8.806;2023-02-28T04:50:50;7.17;;;6.60;;
2049;SDS011;8478;49.208;8.806;2023-02-28T04:53:16;7.30;;;6.73;;
2049;SDS011;8478;49.208;8.806;2023-02-28T04:55:42;6.40;;;6.00;;
2049;SDS011;8478;49.208;8.806;2023-02-28T04:58:08;6.80;;;6.40;;
2049;SDS011;8478;49.208;8.806;2023-02-28T05:00:34;5.63;;;5.23;;
2049;SDS011;8478;49.208;8.806;2023-02-28T05:03:00;6.37;;;5.87;;
2049;SDS011;8478;49.208;8.806;2023-02-28T05:05:25;6.97;;;6.47;;
2049;SDS011;8478;49.208;8.806;2023-02-28T05:07:51;5.80;;;5.40;;
2049;SDS011;8478;49.208;8.806;2023-02-28T05:10:18;6.70;;;6.07;;
2049;SDS011;8478;49.208;8.806;2023-02-28T05:12:44;6.57;;;6.07;;
2049;SDS011;8478;49.208;8.806;2023-02-28T05:15:14;5.80;;;5.30;;
2049;SDS011;8478;49.208;8.806;2023-02-28T05:17:41;6.53;;;6.03;;
2049;SDS011;8478;49.208;8.806;2023-02-28T05:20:07;6.30;;;5.70;;
2049;SDS011;8478;49.208;8.806;2023-02-28T05:22:36;6.47;;;5.87;;
2049;SDS011;8478;49.208;8.806;2023-02-28T05:25:03;6.67;;;6.07;;
2049;SDS011;8478;49.208;8.806;2023-02-28T05:27:30;6.10;;;5.70;;
2049;SDS011;8478;49.208;8.806;2023-02-28T05:29:56;6.27;;;5.83;;
2049;SDS011;8478;49.208;8.806;2023-02-28T05:32:21;5.97;;;5.47;;
2049;SDS011;8478;49.208;8.806;2023-02-28T05:34:47;6.87;;;6.37;;
2049;SDS011;8478;49.208;8.806;2023-02-28T05:37:13;6.80;;;6.30;;
2049;SDS011;8478;49.208;8.806;2023-02-28T05:39:40;6.13;;;5.63;;
2049;SDS011;8478;49.208;8.806;2023-02-28T05:42:06;7.23;;;6.40;;
2049;SDS011;8478;49.208;8.806;2023-02-28T05:44:34;6.60;;;6.10;;
2049;SDS011;8478;49.208;8.806;2023-02-28T05:47:00;6.10;;;5.60;;
2049;SDS011;8478;49.208;8.806;2023-02-28T05:49:26;7.17;;;6.50;;
2049;SDS011;8478;49.208;8.806;2023-02-28T05:51:52;6.80;;;6.30;;
2049;SDS011;8478;49.208;8.806;2023-02-28T05:54:17;7.97;;;7.37;;
2049;SDS011;8478;49.208;8.806;2023-02-28T05:56:43;5.97;;;5.57;;
2049;SDS011;8478;49.208;8.806;2023-02-28T05:59:10;7.23;;;6.63;;
2049;SDS011;8478;49.208;8.806;2023-02-28T06:01:39;6.60;;;6.10;;
2049;SDS011;8478;49.208;8.806;2023-02-28T06:04:05;6.67;;;6.27;;
2049;SDS011;8478;49.208;8.806;2023-02-28T06:06:33;6.70;;;6.10;;
2049;SDS011;8478;49.208;8.806;2023-02-28T06:09:03;6.57;;;6.17;;
2049;SDS011;8478;49.208;8.806;2023-02-28T06:11:29;6.50;;;5.80;;
2049;SDS011;8478;49.208;8.806;2023-02-28T06:13:55;7.07;;;6.57;;
2049;SDS011;8478;49.208;8.806;2023-02-28T06:16:22;6.40;;;5.90;;
2049;SDS011;8478;49.208;8.806;2023-02-28T06:18:48;6.97;;;6.50;;
2049;SDS011;8478;49.208;8.806;2023-02-28T06:21:14;6.70;;;6.20;;
2049;SDS011;8478;49.208;8.806;2023-02-28T06:23:40;7.50;;;7.00;;
2049;SDS011;8478;49.208;8.806;2023-02-28T06:26:05;7.10;;;6.50;;
2049;SDS011;8478;49.208;8.806;2023-02-28T06:28:31;7.63;;;6.90;;
2049;SDS011;8478;49.208;8.806;2023-02-28T06:30:57;6.50;;;6.07;;
2049;SDS011;8478;49.208;8.806;2023-02-28T06:33:22;6.30;;;5.90;;
2049;SDS011;8478;49.208;8.806;2023-02-28T06:35:51;6.30;;;5.80;;
2049;SDS011;8478;49.208;8.806;2023-02-28T06:38:18;6.70;;;6.20;;
2049;SDS011;8478;49.208;8.806;2023-02-28T06:40:44;7.43;;;6.77;;
2049;SDS011;8478;49.208;8.806;2023-02-28T06:43:10;7.40;;;6.90;;
2049;SDS011;8478;49.208;8.806;2023-02-28T06:45:42;7.57;;;7.03;;
2049;SDS011;8478;49.208;8.806;2023-02-28T06:48:08;7.07;;;6.57;;
2049;SDS011;8478;49.208;8.806;2023-02-28T06:50:35;7.00;;;6.50;;
2049;SDS011;8478;49.208;8.806;2023-02-28T06:53:01;6.97;;;6.37;;
2049;SDS011;8478;49.208;8.806;2023-02-28T06:55:26;6.80;;;6.30;;
2049;SDS011;8478;49.208;8.806;2023-02-28T06:57:52;7.90;;;7.23;;
2049;SDS011;8478;49.208;8.806;2023-02-28T07:00:19;7.40;;;6.90;;
2049;SDS011;8478;49.208;8.806;2023-02-28T07:02:45;7.70;;;7.10;;
2049;SDS011;8478;49.208;8.806;2023-02-28T07:05:12;7.40;;;6.80;;
2049;SDS011;8478;49.208;8.806;2023-02-28T07:07:37;6.45;;;5.28;;
2049;SDS011;8478;49.208;8.806;2023-02-28T07:10:05;6.70;;;6.20;;
2049;SDS011;8478;49.208;8.806;2023-02-28T07:12:32;6.90;;;6.40;;
2049;SDS011;8478;49.208;8.806;2023-02-28T07:14:58;6.80;;;6.20;;
2049;SDS011;8478;49.208;8.806;2023-02-28T07:17:23;7.57;;;7.03;;
2049;SDS011;8478;49.208;8.806;2023-02-28T07:19:49;7.77;;;7.20;;
2049;SDS011;8478;49.208;8.806;2023-02-28T07:22:15;6.97;;;6.47;;
2049;SDS011;8478;49.208;8.806;2023-02-28T07:24:40;7.60;;;7.10;;
2049;SDS011;8478;49.208;8.806;2023-02-28T07:27:06;7.13;;;6.63;;
2049;SDS011;8478;49.208;8.806;2023-02-28T07:29:32;8.97;;;7.10;;
2049;SDS011;8478;49.208;8.806;2023-02-28T07:31:57;8.73;;;5.83;;
2049;SDS011;8478;49.208;8.806;2023-02-28T07:34:23;7.30;;;6.70;;
2049;SDS011;8478;49.208;8.806;2023-02-28T07:36:49;6.97;;;6.47;;
2049;SDS011;8478;49.208;8.806;2023-02-28T07:39:18;7.97;;;7.33;;
2049;SDS011;8478;49.208;8.806;2023-02-28T07:41:44;7.47;;;6.70;;
2049;SDS011;8478;49.208;8.806;2023-02-28T07:44:10;7.47;;;6.97;;
2049;SDS011;8478;49.208;8.806;2023-02-28T07:46:36;7.07;;;6.57;;
2049;SDS011;8478;49.208;8.806;2023-02-28T07:49:02;7.17;;;6.50;;
2049;SDS011;8478;49.208;8.806;2023-02-28T07:51:29;7.30;;;6.70;;
2049;SDS011;8478;49.208;8.806;2023-02-28T07:53:55;6.77;;;6.27;;
2049;SDS011;8478;49.208;8.806;2023-02-28T07:56:21;7.60;;;7.00;;
2049;SDS011;8478;49.208;8.806;2023-02-28T07:58:47;7.10;;;6.60;;
2049;SDS011;8478;49.208;8.806;2023-02-28T08:01:13;6.87;;;6.37;;
2049;SDS011;8478;49.208;8.806;2023-02-28T08:03:39;7.10;;;6.60;;
2049;SDS011;8478;49.208;8.806;2023-02-28T08:06:06;6.43;;;5.93;;
2049;SDS011;8478;49.208;8.806;2023-02-28T08:08:33;7.50;;;6.90;;
2049;SDS011;8478;49.208;8.806;2023-02-28T08:10:59;7.50;;;7.00;;
2049;SDS011;8478;49.208;8.806;2023-02-28T08:13:26;7.00;;;6.50;;
2049;SDS011;8478;49.208;8.806;2023-02-28T08:15:53;7.80;;;7.10;;
2049;SDS011;8478;49.208;8.806;2023-02-28T08:18:20;8.43;;;7.73;;
2049;SDS011;8478;49.208;8.806;2023-02-28T08:20:46;8.23;;;7.53;;
2049;SDS011;8478;49.208;8.806;2023-02-28T08:23:12;7.67;;;7.17;;
2049;SDS011;8478;49.208;8.806;2023-02-28T08:25:38;7.60;;;7.00;;
2049;SDS011;8478;49.208;8.806;2023-02-28T08:28:04;8.30;;;7.50;;
2049;SDS011;8478;49.208;8.806;2023-02-28T08:30:29;8.30;;;7.60;;
2049;SDS011;8478;49.208;8.806;2023-02-28T08:32:55;8.03;;;7.43;;
2049;SDS011;8478;49.208;8.806;2023-02-28T08:35:21;8.57;;;7.87;;
2049;SDS011;8478;49.208;8.806;2023-02-28T08:37:47;8.23;;;7.60;;
2049;SDS011;8478;49.208;8.806;2023-02-28T08:40:14;8.17;;;7.57;;
2049;SDS011;8478;49.208;8.806;2023-02-28T08:42:44;9.27;;;8.63;;
2049;SDS011;8478;49.208;8.806;2023-02-28T08:45:10;9.03;;;8.30;;
2049;SDS011;8478;49.208;8.806;2023-02-28T08:47:37;9.70;;;9.03;;
2049;SDS011;8478;49.208;8.806;2023-02-28T08:50:03;10.37;;;9.37;;
2049;SDS011;8478;49.208;8.806;2023-02-28T08:52:29;9.00;;;8.20;;
2049;SDS011;8478;49.208;8.806;2023-02-28T08:54:55;11.60;;;10.60;;
2049;SDS011;8478;49.208;8.806;2023-02-28T08:57:21;11.40;;;10.23;;
2049;SDS011;8478;49.208;8.806;2023-02-28T08:59:46;10.40;;;9.50;;
2049;SDS011;8478;49.208;8.806;2023-02-28T09:02:13;10.50;;;9.60;;
2049;SDS011;8478;49.208;8.806;2023-02-28T09:04:39;10.23;;;9.33;;
2049;SDS011;8478;49.208;8.806;2023-02-28T09:07:06;10.20;;;9.30;;
2049;SDS011;8478;49.208;8.806;2023-02-28T09:09:32;10.00;;;9.20;;
2049;SDS011;8478;49.208;8.806;2023-02-28T09:11:57;17.23;;;10.53;;
2049;SDS011;8478;49.208;8.806;2023-02-28T09:14:23;15.00;;;9.23;;
2049;SDS011;8478;49.208;8.806;2023-02-28T09:16:49;9.73;;;8.43;;
2049;SDS011;8478;49.208;8.806;2023-02-28T09:19:15;9.70;;;8.77;;
2049;SDS011;8478;49.208;8.806;2023-02-28T09:21:40;10.67;;;8.20;;
2049;SDS011;8478;49.208;8.806;2023-02-28T09:24:06;9.80;;;8.87;;
2049;SDS011;8478;49.208;8.806;2023-02-28T09:26:32;9.87;;;9.03;;
2049;SDS011;8478;49.208;8.806;2023-02-28T09:28:59;9.83;;;8.93;;
2049;SDS011;8478;49.208;8.806;2023-02-28T09:31:26;10.60;;;9.50;;
2049;SDS011;8478;49.208;8.806;2023-02-28T09:33:54;9.30;;;8.50;;
2049;SDS011;8478;49.208;8.806;2023-02-28T09:36:22;9.63;;;8.60;;
2049;SDS011;8478;49.208;8.806;2023-02-28T09:38:49;9.93;;;8.93;;
2049;SDS011;8478;49.208;8.806;2023-02-28T09:41:23;10.33;;;9.47;;
2049;SDS011;8478;49.208;8.806;2023-02-28T09:43:57;9.63;;;8.87;;
2049;SDS011;8478;49.208;8.806;2023-02-28T09:48:56;11.47;;;10.27;;
2049;SDS011;8478;49.208;8.806;2023-02-28T09:53:54;10.30;;;9.40;;
2049;SDS011;8478;49.208;8.806;2023-02-28T09:56:41;10.83;;;9.83;;
2049;SDS011;8478;49.208;8.806;2023-02-28T10:05:34;9.83;;;8.83;;
2049;SDS011;8478;49.208;8.806;2023-02-28T10:10:55;9.90;;;9.03;;
2049;SDS011;8478;49.208;8.806;2023-02-28T10:13:43;10.13;;;9.30;;
2049;SDS011;8478;49.208;8.806;2023-02-28T10:16:12;10.37;;;9.57;;
2049;SDS011;8478;49.208;8.806;2023-02-28T10:18:46;9.00;;;8.30;;
2049;SDS011;8478;49.208;8.806;2023-02-28T10:21:24;8.80;;;8.10;;
2049;SDS011;8478;49.208;8.806;2023-02-28T10:24:05;8.77;;;8.17;;
2049;SDS011;8478;49.208;8.806;2023-02-28T10:26:39;9.10;;;8.30;;
2049;SDS011;8478;49.208;8.806;2023-02-28T10:29:08;8.70;;;7.97;;
2049;SDS011;8478;49.208;8.806;2023-02-28T10:31:35;9.90;;;9.10;;
2049;SDS011;8478;49.208;8.806;2023-02-28T10:34:01;9.13;;;8.43;;
2049;SDS011;8478;49.208;8.806;2023-02-28T10:36:28;9.90;;;9.10;;
2049;SDS011;8478;49.208;8.806;2023-02-28T10:38:54;10.03;;;9.23;;
2049;SDS011;8478;49.208;8.806;2023-02-28T10:41:30;10.53;;;9.70;;
2049;SDS011;8478;49.208;8.806;2023-02-28T10:44:14;9.33;;;8.63;;
2049;SDS011;8478;49.208;8.806;2023-02-28T10:46:48;9.27;;;8.47;;
2049;SDS011;8478;49.208;8.806;2023-02-28T10:49:22;9.03;;;8.20;;
2049;SDS011;8478;49.208;8.806;2023-02-28T10:51:56;10.53;;;9.63;;
2049;SDS011;8478;49.208;8.806;2023-02-28T10:54:27;10.97;;;10.07;;
2049;SDS011;8478;49.208;8.806;2023-02-28T10:57:16;11.17;;;10.27;;
2049;SDS011;8478;49.208;8.806;2023-02-28T10:59:44;10.73;;;9.50;;
2049;SDS011;8478;49.208;8.806;2023-02-28T11:04:56;10.47;;;9.50;;
2049;SDS011;8478;49.208;8.806;2023-02-28T11:07:22;10.27;;;9.47;;
2049;SDS011;8478;49.208;8.806;2023-02-28T11:09:53;9.50;;;8.70;;
2049;SDS011;8478;49.208;8.806;2023-02-28T11:12:36;11.00;;;10.10;;
2049;SDS011;8478;49.208;8.806;2023-02-28T11:15:22;9.83;;;9.00;;
2049;SDS011;8478;49.208;8.806;2023-02-28T11:17:57;10.93;;;10.03;;
2049;SDS011;8478;49.208;8.806;2023-02-28T11:20:50;9.43;;;8.63;;
2049;SDS011;8478;49.208;8.806;2023-02-28T11:23:19;11.17;;;10.27;;
2049;SDS011;8478;49.208;8.806;2023-02-28T11:25:52;10.40;;;9.40;;
2049;SDS011;8478;49.208;8.806;2023-02-28T11:28:26;10.60;;;9.70;;
2049;SDS011;8478;49.208;8.806;2023-02-28T11:33:55;10.37;;;9.57;;
2049;SDS011;8478;49.208;8.806;2023-02-28T11:36:25;11.80;;;10.90;;
2049;SDS011;8478;49.208;8.806;2023-02-28T11:38:54;11.07;;;10.17;;
2049;SDS011;8478;49.208;8.806;2023-02-28T11:52:39;11.37;;;10.47;;
2049;SDS011;8478;49.208;8.806;2023-02-28T11:55:08;12.10;;;10.90;;
2049;SDS011;8478;49.208;8.806;2023-02-28T12:03:33;11.37;;;10.47;;
2049;SDS011;8478;49.208;8.806;2023-02-28T12:08:43;11.70;;;10.60;;
2049;SDS011;8478;49.208;8.806;2023-02-28T12:14:25;11.10;;;10.20;;
2049;SDS011;8478;49.208;8.806;2023-02-28T12:16:57;10.90;;;10.00;;
2049;SDS011;8478;49.208;8.806;2023-02-28T12:27:39;13.70;;;12.47;;
2049;SDS011;8478;49.208;8.806;2023-02-28T12:33:09;12.20;;;11.00;;
2049;SDS011;8478;49.208;8.806;2023-02-28T12:35:45;12.67;;;11.43;;
2049;SDS011;8478;49.208;8.806;2023-02-28T12:38:17;11.67;;;10.60;;
2049;SDS011;8478;49.208;8.806;2023-02-28T12:41:03;13.23;;;11.93;;
2049;SDS011;8478;49.208;8.806;2023-02-28T12:43:33;12.00;;;10.93;;
2049;SDS011;8478;49.208;8.806;2023-02-28T12:48:55;10.83;;;9.93;;
2049;SDS011;8478;49.208;8.806;2023-02-28T12:51:24;11.63;;;10.73;;
2049;SDS011;8478;49.208;8.806;2023-02-28T13:02:18;10.70;;;9.80;;
2049;SDS011;8478;49.208;8.806;2023-02-28T13:07:23;11.10;;;10.30;;
2049;SDS011;8478;49.208;8.806;2023-02-28T13:10:03;11.10;;;10.10;;
2049;SDS011;8478;49.208;8.806;2023-02-28T13:12:32;10.97;;;10.17;;
2049;SDS011;8478;49.208;8.806;2023-02-28T13:15:07;11.20;;;10.10;;
2049;SDS011;8478;49.208;8.806;2023-02-28T13:17:53;11.90;;;10.70;;
2049;SDS011;8478;49.208;8.806;2023-02-28T13:20:28;11.30;;;10.50;;
2049;SDS011;8478;49.208;8.806;2023-02-28T13:22:58;11.30;;;10.30;;
2049;SDS011;8478;49.208;8.806;2023-02-28T13:28:11;11.57;;;10.57;;
2049;SDS011;8478;49.208;8.806;2023-02-28T13:33:21;10.50;;;9.80;;
2049;SDS011;8478;49.208;8.806;2023-02-28T13:36:00;11.17;;;10.17;;
2049;SDS011;8478;49.208;8.806;2023-02-28T13:38:41;9.60;;;8.80;;
2049;SDS011;8478;49.208;8.806;2023-02-28T13:44:11;11.07;;;10.10;;
2049;SDS011;8478;49.208;8.806;2023-02-28T13:51:50;21.00;;;11.75;;
2049;SDS011;8478;49.208;8.806;2023-02-28T13:57:48;15.73;;;12.60;;
2049;SDS011;8478;49.208;8.806;2023-02-28T14:06:16;17.93;;;11.57;;
2049;SDS011;8478;49.208;8.806;2023-02-28T14:11:57;11.93;;;10.70;;
2049;SDS011;8478;49.208;8.806;2023-02-28T14:17:12;13.47;;;12.10;;
2049;SDS011;8478;49.208;8.806;2023-02-28T14:19:41;12.97;;;11.93;;
2049;SDS011;8478;49.208;8.806;2023-02-28T14:25:08;13.00;;;12.00;;
2049;SDS011;8478;49.208;8.806;2023-02-28T14:31:09;12.17;;;11.20;;
2049;SDS011;8478;49.208;8.806;2023-02-28T14:36:22;12.67;;;11.37;;
2049;SDS011;8478;49.208;8.806;2023-02-28T14:38:56;12.63;;;11.63;;
2049;SDS011;8478;49.208;8.806;2023-02-28T14:41:30;12.00;;;10.90;;
2049;SDS011;8478;49.208;8.806;2023-02-28T14:43:57;11.80;;;10.70;;
2049;SDS011;8478;49.208;8.806;2023-02-28T14:46:38;11.77;;;10.63;;
2049;SDS011;8478;49.208;8.806;2023-02-28T14:49:05;11.37;;;10.43;;
2049;SDS011;8478;49.208;8.806;2023-02-28T14:51:37;10.82;;;9.82;;
2049;SDS011;8478;49.208;8.806;2023-02-28T14:54:03;11.03;;;10.13;;
2049;SDS011;8478;49.208;8.806;2023-02-28T14:56:38;11.90;;;10.83;;
2049;SDS011;8478;49.208;8.806;2023-02-28T14:59:05;11.30;;;10.40;;
2049;SDS011;8478;49.208;8.806;2023-02-28T15:02:16;10.43;;;9.53;;
2049;SDS011;8478;49.208;8.806;2023-02-28T15:04:54;10.57;;;9.60;;
2049;SDS011;8478;49.208;8.806;2023-02-28T15:07:21;10.00;;;9.30;;
2049;SDS011;8478;49.208;8.806;2023-02-28T15:12:53;11.87;;;10.93;;
2049;SDS011;8478;49.208;8.806;2023-02-28T15:15:25;10.53;;;9.63;;
2049;SDS011;8478;49.208;8.806;2023-02-28T15:18:00;12.00;;;10.90;;
2049;SDS011;8478;49.208;8.806;2023-02-28T15:20:30;11.80;;;10.70;;
2049;SDS011;8478;49.208;8.806;2023-02-28T15:22:58;16.70;;;12.57;;
2049;SDS011;8478;49.208;8.806;2023-02-28T15:25:24;17.60;;;12.60;;
2049;SDS011;8478;49.208;8.806;2023-02-28T15:27:53;19.30;;;12.20;;
2049;SDS011;8478;49.208;8.806;2023-02-28T15:30:25;16.87;;;12.90;;
2049;SDS011;8478;49.208;8.806;2023-02-28T15:33:02;16.87;;;13.40;;
2049;SDS011;8478;49.208;8.806;2023-02-28T15:35:29;13.87;;;11.30;;
2049;SDS011;8478;49.208;8.806;2023-02-28T15:40:26;12.70;;;11.60;;
2049;SDS011;8478;49.208;8.806;2023-02-28T15:43:06;13.97;;;11.80;;
2049;SDS011;8478;49.208;8.806;2023-02-28T15:45:45;12.23;;;10.60;;
2049;SDS011;8478;49.208;8.806;2023-02-28T15:48:16;12.93;;;11.47;;
2049;SDS011;8478;49.208;8.806;2023-02-28T15:50:54;12.70;;;10.93;;
2049;SDS011;8478;49.208;8.806;2023-02-28T15:53:45;12.03;;;11.13;;
2049;SDS011;8478;49.208;8.806;2023-02-28T15:56:20;12.93;;;11.80;;
2049;SDS011;8478;49.208;8.806;2023-02-28T15:58:47;10.83;;;10.13;;
2049;SDS011;8478;49.208;8.806;2023-02-28T16:01:17;11.50;;;10.40;;
2049;SDS011;8478;49.208;8.806;2023-02-28T16:03:50;10.73;;;9.73;;
2049;SDS011;8478;49.208;8.806;2023-02-28T16:06:37;10.00;;;9.30;;
2049;SDS011;8478;49.208;8.806;2023-02-28T16:09:06;11.03;;;10.03;;
2049;SDS011;8478;49.208;8.806;2023-02-28T16:11:37;10.10;;;9.40;;
2049;SDS011;8478;49.208;8.806;2023-02-28T16:14:06;10.77;;;9.87;;
2049;SDS011;8478;49.208;8.806;2023-02-28T16:16:33;11.50;;;10.50;;
2049;SDS011;8478;49.208;8.806;2023-02-28T16:19:07;11.23;;;10.33;;
2049;SDS011;8478;49.208;8.806;2023-02-28T16:21:33;10.53;;;9.60;;
2049;SDS011;8478;49.208;8.806;2023-02-28T16:23:59;11.17;;;10.20;;
2049;SDS011;8478;49.208;8.806;2023-02-28T16:26:24;10.70;;;9.80;;
2049;SDS011;8478;49.208;8.806;2023-02-28T16:28:52;10.13;;;9.30;;
2049;SDS011;8478;49.208;8.806;2023-02-28T16:31:18;11.23;;;10.37;;
2049;SDS011;8478;49.208;8.806;2023-02-28T16:33:45;10.37;;;9.47;;
2049;SDS011;8478;49.208;8.806;2023-02-28T16:36:21;10.30;;;9.50;;
2049;SDS011;8478;49.208;8.806;2023-02-28T16:38:50;11.33;;;10.33;;
2049;SDS011;8478;49.208;8.806;2023-02-28T16:41:21;9.60;;;8.90;;
2049;SDS011;8478;49.208;8.806;2023-02-28T16:43:52;10.93;;;10.13;;
2049;SDS011;8478;49.208;8.806;2023-02-28T16:46:24;11.13;;;10.23;;
2049;SDS011;8478;49.208;8.806;2023-02-28T16:48:53;10.03;;;9.30;;
2049;SDS011;8478;49.208;8.806;2023-02-28T16:51:19;10.97;;;10.17;;
2049;SDS011;8478;49.208;8.806;2023-02-28T16:53:44;11.33;;;10.43;;
2049;SDS011;8478;49.208;8.806;2023-02-28T16:56:15;9.77;;;8.87;;
2049;SDS011;8478;49.208;8.806;2023-02-28T16:58:49;10.50;;;9.70;;
2049;SDS011;8478;49.208;8.806;2023-02-28T17:01:15;11.17;;;10.17;;
2049;SDS011;8478;49.208;8.806;2023-02-28T17:03:46;10.50;;;9.60;;
2049;SDS011;8478;49.208;8.806;2023-02-28T17:06:31;10.93;;;10.03;;
2049;SDS011;8478;49.208;8.806;2023-02-28T17:08:57;10.73;;;9.80;;
2049;SDS011;8478;49.208;8.806;2023-02-28T17:11:24;10.40;;;9.60;;
2049;SDS011;8478;49.208;8.806;2023-02-28T17:13:50;10.20;;;9.20;;
2049;SDS011;8478;49.208;8.806;2023-02-28T17:16:24;10.90;;;9.97;;
2049;SDS011;8478;49.208;8.806;2023-02-28T17:18:56;11.17;;;10.17;;
2049;SDS011;8478;49.208;8.806;2023-02-28T17:21:24;11.50;;;10.40;;
2049;SDS011;8478;49.208;8.806;2023-02-28T17:23:49;11.20;;;10.20;;
2049;SDS011;8478;49.208;8.806;2023-02-28T17:26:16;10.07;;;9.20;;
2049;SDS011;8478;49.208;8.806;2023-02-28T17:28:45;12.10;;;11.00;;
2049;SDS011;8478;49.208;8.806;2023-02-28T17:31:14;11.30;;;10.30;;
2049;SDS011;8478;49.208;8.806;2023-02-28T17:33:40;12.30;;;11.20;;
2049;SDS011;8478;49.208;8.806;2023-02-28T17:36:06;13.30;;;12.20;;
2049;SDS011;8478;49.208;8.806;2023-02-28T17:38:37;14.50;;;13.10;;
2049;SDS011;8478;49.208;8.806;2023-02-28T17:41:03;14.97;;;13.60;;
2049;SDS011;8478;49.208;8.806;2023-02-28T17:43:28;16.87;;;15.37;;
2049;SDS011;8478;49.208;8.806;2023-02-28T17:45:54;15.27;;;14.00;;
2049;SDS011;8478;49.208;8.806;2023-02-28T17:48:21;15.23;;;13.93;;
2049;SDS011;8478;49.208;8.806;2023-02-28T17:50:47;15.20;;;13.67;;
2049;SDS011;8478;49.208;8.806;2023-02-28T17:53:13;13.87;;;12.57;;